Scf Alpine — A8XQ2 — position and weather

sailwx.info

Track history (hours):
 
Tides and Currents Weather Stations Pressure Air Temp Water Temp Dewpoint Dewpoint Depression Visibility Wind Speed Wind Dir Waves Ship Positions

Scf Alpine

Last reported at 2016-Apr-17 04:33 UTC. Time now 2016-Apr-30 13:11 UTC.
Position S 27°21' E 153°11'.
Warning: this ship's position is 13 days out of date.

Length 228 m; draft 9.2 m.

Type: Ship (hazmat cat A). MMSI: 636014957.

Date/timePositionNaut miles runAvg speedWind from/ knotsBaromVisibWave heightAir tempDewpointWater temp
2016-Apr-17 04:33S 27°21' E 153°11'6 6.2
2016-Apr-17 03:33S 27°26' E 153°07'0 0.0
2016-Apr-15 20:32S 27°26' E 153°07'0 0.0
2016-Apr-14 07:17S 27°26' E 153°07'3 3.6
2016-Apr-14 06:33S 27°24' E 153°09'1010.0
2016-Apr-14 05:34S 27°16' E 153°16'1110.6
2016-Apr-14 04:33S 27°06' E 153°19'1212.3
2016-Apr-14 03:34S 26°55' E 153°12'1110.9
2016-Apr-14 02:34S 26°44' E 153°12'4 3.6
2016-Apr-14 01:27S 26°41' E 153°15'0 0.1
2016-Apr-14 00:33S 26°41' E 153°15'0 0.0
2016-Apr-13 23:33S 26°41' E 153°15'0 0.0
2016-Apr-13 22:33S 26°41' E 153°15'0 0.0
2016-Apr-13 21:33S 26°41' E 153°15'0 0.0
2016-Apr-13 20:33S 26°41' E 153°15'0 0.0
2016-Apr-13 19:33S 26°41' E 153°15'0 0.1
2016-Apr-13 18:33S 26°41' E 153°15'0 0.0
2016-Apr-13 17:24S 26°41' E 153°15'0 0.0
2016-Apr-13 16:33S 26°41' E 153°15'0 0.0
2016-Apr-13 15:33S 26°41' E 153°15'0 0.2
2016-Apr-13 14:33S 26°41' E 153°15'6 6.0
2016-Apr-13 13:32S 26°39' E 153°22'  
Track history (hours):
 
Tides and Currents Weather Stations Pressure Air Temp Water Temp Dewpoint Dewpoint Depression Visibility Wind Speed Wind Dir Waves Ship Positions

Scf Alpine

Last reported at 2016-Apr-17 04:33 UTC. Time now 2016-Apr-30 13:11 UTC.
Position S 27°21' E 153°11'.
Warning: this ship's position is 13 days out of date.

Length 228 m; draft 9.2 m.

Type: Ship (hazmat cat A). MMSI: 636014957.

Date/timePositionNaut miles runAvg speedWind from/ knotsBaromVisibWave heightAir tempDewpointWater temp
2016-Apr-17 04:33S 27°21' E 153°11'6 6.2
2016-Apr-17 03:33S 27°26' E 153°07'0 0.0
2016-Apr-15 20:32S 27°26' E 153°07'0 0.0
2016-Apr-14 07:17S 27°26' E 153°07'3 3.6
2016-Apr-14 06:33S 27°24' E 153°09'1010.0
2016-Apr-14 05:34S 27°16' E 153°16'1110.6
2016-Apr-14 04:33S 27°06' E 153°19'1212.3
2016-Apr-14 03:34S 26°55' E 153°12'1110.9
2016-Apr-14 02:34S 26°44' E 153°12'4 3.6
2016-Apr-14 01:27S 26°41' E 153°15'0 0.1
2016-Apr-14 00:33S 26°41' E 153°15'0 0.0
2016-Apr-13 23:33S 26°41' E 153°15'0 0.0
2016-Apr-13 22:33S 26°41' E 153°15'0 0.0
2016-Apr-13 21:33S 26°41' E 153°15'0 0.0
2016-Apr-13 20:33S 26°41' E 153°15'0 0.0
2016-Apr-13 19:33S 26°41' E 153°15'0 0.1
2016-Apr-13 18:33S 26°41' E 153°15'0 0.0
2016-Apr-13 17:24S 26°41' E 153°15'0 0.0
2016-Apr-13 16:33S 26°41' E 153°15'0 0.0
2016-Apr-13 15:33S 26°41' E 153°15'0 0.2
2016-Apr-13 14:33S 26°41' E 153°15'6 6.0
2016-Apr-13 13:32S 26°39' E 153°22'  

Dump ship's entire track history